map of KEDC home
KEDC - Airport
Location
City:  Austin, Texas, United States
Name:Austin Executive Airport
ICAO:KEDC
FAA LID:EDC

Details
Type:Airport (Airfield)
Use:Public/Civil
Latitude:3023'51"N (30.397493)
Longitude:9733'59"W (-97.566392)
Datum:WGS 1984
Elevation:620 ft (189 m)
Variation:3.65E (WMM2015v2 magnetic declination)
-0.10 annual change
Runways:2
Longest:6025 × 100 ft (1836 × 30.5 m), paved

Time
Time Zone:UTC-6 (DST-5)
Local Time:

Weather
METAR:KEDC 041415Z AUTO 21007KT 2 1/2SM BR BKN006 OVC015 18/18 A2992 RMK AO2

Related Locations
Nearby:
Farthest:RRG: 11043 mi / 17772 km
Plaine Corail [Sir Gatan Duval Airport (Plaine Corail Airport)], Rodrigues Island, MU

Find:

   beyond  
but within

Other Information
Maps:
NOTAMs:
Links:
Sources:

  
  • flag of United States
  • flag of Texas
  

Airport Diagram

Airport diagram for KEDC

Airport diagram PDF from FAA

Sectional Chart

Flight Planning
at skyvector.com

Satellite Image

Google Maps Satellite view

 

Copyright © 2004-2019 Karl L. Swartz. All rights reserved.
The Great Circle Mapper name and logo are trademarks of the Great Circle Mapper.
All other trademarks mentioned herein belong to their respective owners.
Please see credits for attibutions and further copyright information.

  Follow gcmap on Facebook Follow gcmap on Twitter GCmap on LinkedIn

hCard Microformat

Geo Microformat